createdAt,value
2017-07-15T00:00:41.648Z,101.5
2017-07-15T00:01:41.353Z,101.6
2017-07-15T00:02:40.438Z,101.6
2017-07-15T00:03:39.626Z,101.7
2017-07-15T00:04:09.882Z,101.7
2017-07-15T00:04:40.132Z,101.8
2017-07-15T00:05:10.639Z,101.8
2017-07-15T00:05:41.272Z,101.7
2017-07-15T00:06:12.089Z,101.7
2017-07-15T00:07:36.321Z,101.8
2017-07-15T00:08:35.935Z,101.9
2017-07-15T00:09:34.885Z,101.8
2017-07-15T00:10:34.455Z,101.8
2017-07-15T00:11:33.132Z,101.9
2017-07-15T00:12:32.330Z,102
2017-07-15T00:13:31.669Z,102
2017-07-15T00:14:31.318Z,101.8
2017-07-15T00:15:30.130Z,101.8
2017-07-15T00:16:29.459Z,101.9
2017-07-15T00:17:28.665Z,101.9
2017-07-15T00:18:27.737Z,101.9
2017-07-15T00:19:27.103Z,101.9
2017-07-15T00:21:25.816Z,102
2017-07-15T00:22:24.758Z,102
2017-07-15T00:23:23.817Z,102.2
2017-07-15T00:24:23.008Z,102.2
2017-07-15T00:25:22.201Z,102.3
2017-07-15T00:26:21.529Z,102.3
2017-07-15T00:27:20.854Z,102.3
2017-07-15T00:28:20.177Z,102.4
2017-07-15T00:29:19.250Z,102.4
2017-07-15T00:30:18.578Z,102.5
2017-07-15T00:31:17.787Z,102.5
2017-07-15T00:32:16.983Z,102.6
2017-07-15T00:33:16.296Z,102.6
2017-07-15T00:34:15.505Z,102.8
2017-07-15T00:35:14.697Z,102.8
2017-07-15T00:36:13.659Z,102.8
2017-07-15T00:37:13.098Z,102.8
2017-07-15T00:38:12.352Z,102.7
2017-07-15T00:39:11.662Z,102.6
2017-07-15T00:40:10.980Z,102.7
2017-07-15T00:41:09.793Z,102.7
2017-07-15T00:42:09.246Z,102.6
2017-07-15T00:43:08.052Z,102.8
2017-07-15T00:44:07.375Z,102.8
2017-07-15T00:45:06.952Z,102.8
2017-07-15T00:46:06.024Z,102.9
2017-07-15T00:47:05.102Z,103
2017-07-15T00:48:04.474Z,103
2017-07-15T00:49:03.555Z,103.2
2017-07-15T00:51:02.200Z,103.1
2017-07-15T00:52:01.006Z,103.2
2017-07-15T00:53:00.649Z,103.2
2017-07-15T00:53:59.593Z,103.3
2017-07-15T00:54:59.166Z,103.3
2017-07-15T00:55:58.110Z,103.2
2017-07-15T00:56:57.549Z,102.9
2017-07-15T00:57:56.494Z,102.9
2017-07-15T00:58:55.692Z,102.8
2017-07-15T00:59:55.155Z,103
2017-07-15T01:00:54.489Z,103
2017-07-15T01:01:24.757Z,103
2017-07-15T01:01:55.261Z,103
2017-07-15T01:02:25.900Z,103
2017-07-15T01:02:56.291Z,103.1
2017-07-15T01:03:26.667Z,103.1
2017-07-15T01:04:51.150Z,103.5
2017-07-15T01:05:50.355Z,103.4
2017-07-15T01:06:49.675Z,103.4
2017-07-15T01:07:48.743Z,103.4
2017-07-15T01:08:48.197Z,103.3
2017-07-15T01:09:47.147Z,103.2
2017-07-15T01:10:46.722Z,103.2
2017-07-15T01:11:16.931Z,103.2
2017-07-15T01:11:47.196Z,103.3
2017-07-15T01:12:17.954Z,103.3
2017-07-15T01:12:48.206Z,103.3
2017-07-15T01:13:18.727Z,103.3
2017-07-15T01:14:43.338Z,103.4
2017-07-15T01:15:42.790Z,103.3
2017-07-15T01:16:41.615Z,103.4
2017-07-15T01:17:40.819Z,103.3
2017-07-15T01:18:40.272Z,103.6
2017-07-15T01:19:39.105Z,103.6
2017-07-15T01:20:38.426Z,103.6
2017-07-15T01:21:38.118Z,103.6
2017-07-15T01:22:37.176Z,103.6
2017-07-15T01:23:36.243Z,103.6
2017-07-15T01:24:35.306Z,103.7
2017-07-15T01:25:34.874Z,103.8
2017-07-15T01:26:33.957Z,103.8
2017-07-15T01:27:33.333Z,103.8
2017-07-15T01:28:32.650Z,103.8
2017-07-15T01:29:31.469Z,103.8
2017-07-15T01:30:01.982Z,103.8
2017-07-15T01:30:32.232Z,103.8
2017-07-15T01:31:02.736Z,103.8
2017-07-15T01:31:33.532Z,103.8
2017-07-15T01:32:03.294Z,103.8
2017-07-15T01:32:33.539Z,103.8
2017-07-15T01:33:28.593Z,103.8
2017-07-15T01:34:27.547Z,103.8
2017-07-15T01:35:26.882Z,103.8
2017-07-15T01:36:25.963Z,103.8
2017-07-15T01:37:25.169Z,103.9
2017-07-15T01:38:24.500Z,103.9
2017-07-15T01:39:23.587Z,103.9
2017-07-15T01:40:23.280Z,104
2017-07-15T01:40:53.798Z,104
2017-07-15T01:41:24.050Z,104.1
2017-07-15T01:41:54.813Z,104.1
2017-07-15T01:42:25.109Z,104.1
2017-07-15T01:42:55.486Z,104.1
2017-07-15T01:43:26.121Z,104
2017-07-15T01:43:56.883Z,104
2017-07-15T01:45:19.359Z,104
2017-07-15T01:46:18.365Z,104
2017-07-15T01:47:17.192Z,104
2017-07-15T01:48:16.785Z,103.9
2017-07-15T01:49:16.227Z,103.9
2017-07-15T01:50:15.296Z,103.9
2017-07-15T01:51:14.098Z,103.9
2017-07-15T01:51:44.731Z,103.9
2017-07-15T01:52:15.100Z,103.9
2017-07-15T01:52:45.600Z,103.9
2017-07-15T01:53:16.300Z,103.9
2017-07-15T01:53:47.067Z,103.9
2017-07-15T01:54:17.570Z,103.9
2017-07-15T01:54:47.707Z,103.9
2017-07-15T01:56:10.186Z,103.9
2017-07-15T01:57:09.883Z,103.9
2017-07-15T01:58:08.701Z,104
2017-07-15T01:59:07.888Z,104
2017-07-15T02:00:07.200Z,103.9
2017-07-15T02:01:06.411Z,104
2017-07-15T02:02:05.978Z,104
2017-07-15T02:03:05.182Z,104.1
2017-07-15T02:04:04.366Z,104.1
2017-07-15T02:05:03.560Z,104
2017-07-15T02:06:02.372Z,104
2017-07-15T02:07:02.051Z,104.2
2017-07-15T02:08:00.993Z,104.2
2017-07-15T02:09:00.204Z,104.3
2017-07-15T02:09:59.263Z,104.3
2017-07-15T02:10:58.587Z,104.3
2017-07-15T02:11:57.775Z,104.1
2017-07-15T02:12:57.345Z,104.1
2017-07-15T02:13:56.661Z,104.2
2017-07-15T02:14:55.614Z,104.3
2017-07-15T02:15:55.060Z,104.3
2017-07-15T02:16:53.874Z,104.3
2017-07-15T02:17:53.188Z,104.4
2017-07-15T02:18:52.374Z,104.4
2017-07-15T02:19:51.696Z,104.3
2017-07-15T02:20:50.890Z,104.2
2017-07-15T02:21:49.956Z,104.2
2017-07-15T02:22:49.524Z,104.3
2017-07-15T02:23:48.653Z,104.4
2017-07-15T02:24:19.161Z,104.4
2017-07-15T02:24:49.676Z,104.2
2017-07-15T02:25:46.987Z,104.2
2017-07-15T02:26:46.317Z,104.3
2017-07-15T02:27:45.277Z,104.2
2017-07-15T02:28:44.861Z,104.3
2017-07-15T02:29:43.926Z,104.3
2017-07-15T02:30:42.997Z,104.4
2017-07-15T02:31:42.194Z,104.4
2017-07-15T02:32:41.400Z,104.4
2017-07-15T02:33:40.709Z,104.1
2017-07-15T02:34:39.911Z,104.1
2017-07-15T02:35:39.485Z,103.7
2017-07-15T02:36:38.426Z,103.7
2017-07-15T02:37:37.751Z,103.7
2017-07-15T02:40:34.976Z,102.6
2017-07-15T02:41:34.548Z,102.5
2017-07-15T02:42:33.738Z,102.4
2017-07-15T02:43:32.808Z,102.6
2017-07-15T02:44:32.004Z,102.6
2017-07-15T02:45:31.324Z,102.2
2017-07-15T02:46:30.533Z,102.4
2017-07-15T02:47:31.466Z,102.1
2017-07-15T02:48:29.278Z,101.8
2017-07-15T02:48:59.787Z,101.8
2017-07-15T02:49:30.431Z,101.7
2017-07-15T02:50:00.932Z,101.7
2017-07-15T02:51:26.665Z,101.4
2017-07-15T02:52:26.104Z,101.4
2017-07-15T02:54:24.186Z,102
2017-07-15T02:55:23.630Z,102
2017-07-15T02:56:22.946Z,102.1
2017-07-15T02:57:21.899Z,102.2
2017-07-15T02:58:21.211Z,102.2
2017-07-15T02:59:20.400Z,102.2
2017-07-15T02:59:50.717Z,102.2
2017-07-15T03:00:20.979Z,102.2
2017-07-15T03:00:51.356Z,102.2
2017-07-15T03:02:18.360Z,101.7
2017-07-15T03:03:17.305Z,101.7
2017-07-15T03:04:16.378Z,101.8
2017-07-15T03:05:15.457Z,102.2
2017-07-15T03:06:14.919Z,101.9
2017-07-15T03:07:14.129Z,101.4
2017-07-15T03:08:13.326Z,101.3
2017-07-15T03:09:12.767Z,101.6
2017-07-15T03:10:11.835Z,101.7
2017-07-15T03:11:11.283Z,101.9
2017-07-15T03:12:10.097Z,101.1
2017-07-15T03:13:09.548Z,101.2
2017-07-15T03:14:08.680Z,101.5
2017-07-15T03:15:08.120Z,101.5
2017-07-15T03:16:07.080Z,101.4
2017-07-15T03:17:06.655Z,101.5
2017-07-15T03:18:05.730Z,101.3
2017-07-15T03:18:36.365Z,101.3
2017-07-15T03:19:06.628Z,101.3
2017-07-15T03:19:37.012Z,101.3
2017-07-15T03:21:02.940Z,101.4
2017-07-15T03:22:02.384Z,101.7
2017-07-15T03:23:01.836Z,101.9
2017-07-15T03:24:01.158Z,101.2
2017-07-15T03:24:59.860Z,101.3
2017-07-15T03:25:59.547Z,101.5
2017-07-15T03:26:58.221Z,101.2
2017-07-15T03:27:57.671Z,101.4
2017-07-15T03:28:28.180Z,101.4
2017-07-15T03:28:58.521Z,101.6
2017-07-15T03:29:28.779Z,101.6
2017-07-15T03:29:59.281Z,101.7
2017-07-15T03:30:30.044Z,101.7
2017-07-15T03:31:00.300Z,101.6
2017-07-15T03:31:30.933Z,101.6
2017-07-15T03:32:01.693Z,101.4
2017-07-15T03:32:32.191Z,101.4
2017-07-15T03:33:52.905Z,102
2017-07-15T03:34:52.095Z,102
2017-07-15T03:35:51.537Z,102.2
2017-07-15T03:36:50.978Z,102
2017-07-15T03:37:50.036Z,101.9
2017-07-15T03:38:49.098Z,102.1
2017-07-15T03:39:48.430Z,102.1
2017-07-15T03:40:18.811Z,102.1
2017-07-15T03:40:49.465Z,102.3
2017-07-15T03:41:20.111Z,102.3
2017-07-15T03:41:50.364Z,102.2
2017-07-15T03:42:20.999Z,102.2
2017-07-15T03:43:45.227Z,102.2
2017-07-15T03:44:44.122Z,102.3
2017-07-15T03:45:43.305Z,102
2017-07-15T03:46:42.565Z,101.9
2017-07-15T03:47:41.752Z,102
2017-07-15T03:48:41.438Z,101.9
2017-07-15T03:49:40.374Z,102
2017-07-15T03:50:39.570Z,102.1
2017-07-15T03:51:38.899Z,102.3
2017-07-15T03:52:38.090Z,102.4
2017-07-15T03:53:37.413Z,102.6
2017-07-15T03:54:36.728Z,102.3
2017-07-15T03:55:35.931Z,102.3
2017-07-15T03:56:35.006Z,102.5
2017-07-15T03:57:34.458Z,102.5
2017-07-15T03:58:33.279Z,102.6
2017-07-15T03:59:32.840Z,102.4
2017-07-15T04:00:32.029Z,102.4
2017-07-15T04:01:30.839Z,102.4
2017-07-15T04:02:30.266Z,102.4
2017-07-15T04:03:29.521Z,102.6
2017-07-15T04:04:28.480Z,102.7
2017-07-15T04:06:27.083Z,102.9
2017-07-15T04:07:26.160Z,102.9
2017-07-15T04:08:25.490Z,102.9
2017-07-15T04:09:24.955Z,103
2017-07-15T04:10:24.133Z,103.2
2017-07-15T04:11:23.070Z,103.4
2017-07-15T04:11:53.697Z,103.4
2017-07-15T04:12:24.200Z,103.4
2017-07-15T04:12:54.701Z,103.4
2017-07-15T04:13:25.194Z,103.4
2017-07-15T04:14:21.026Z,103.5
2017-07-15T04:15:19.867Z,103.4
2017-07-15T04:16:19.350Z,103.4
2017-07-15T04:17:18.426Z,103.4
2017-07-15T04:18:17.616Z,103.1
2017-07-15T04:19:16.565Z,103.2
2017-07-15T04:20:16.018Z,103.3
2017-07-15T04:21:15.212Z,103.2
2017-07-15T04:21:45.725Z,103.2
2017-07-15T04:22:16.233Z,103.4
2017-07-15T04:22:46.615Z,103.4
2017-07-15T04:23:16.870Z,103.5
2017-07-15T04:24:13.060Z,103.7
2017-07-15T04:25:11.832Z,103.5
2017-07-15T04:26:11.172Z,103.3
2017-07-15T04:28:09.874Z,103.4
2017-07-15T04:29:08.809Z,103.6
2017-07-15T04:30:08.260Z,103.5
2017-07-15T04:31:07.447Z,103.5
2017-07-15T04:32:06.376Z,103.6
2017-07-15T04:33:05.694Z,103.6
2017-07-15T04:34:05.267Z,103.5
2017-07-15T04:35:04.588Z,103.5
2017-07-15T04:36:03.410Z,103.6
2017-07-15T04:37:02.486Z,103.7
2017-07-15T04:37:32.984Z,103.7
2017-07-15T04:38:03.360Z,103.8
2017-07-15T04:38:34.120Z,103.8
2017-07-15T04:39:04.638Z,103.9
2017-07-15T04:40:00.455Z,103.9
2017-07-15T04:40:59.282Z,103.8
2017-07-15T04:41:58.603Z,103.9
2017-07-15T04:42:57.805Z,104
2017-07-15T04:43:57.003Z,104
2017-07-15T04:44:56.568Z,104
2017-07-15T04:45:55.636Z,103.9
2017-07-15T04:46:54.715Z,103.7
2017-07-15T04:47:54.203Z,103.8
2017-07-15T04:48:24.460Z,103.8
2017-07-15T04:48:55.087Z,103.9
2017-07-15T04:49:25.721Z,103.9
2017-07-15T04:49:56.097Z,104.1
2017-07-15T04:50:51.586Z,103.9
2017-07-15T04:51:50.891Z,103.9
2017-07-15T04:52:49.962Z,104
2017-07-15T04:53:49.404Z,104
2017-07-15T04:54:48.852Z,103.9
2017-07-15T04:55:47.784Z,103.9
2017-07-15T04:56:46.909Z,103.9
2017-07-15T04:57:46.228Z,103.9
2017-07-15T04:58:45.546Z,103.9
2017-07-15T04:59:44.616Z,103.7
2017-07-15T05:00:43.809Z,103.7
2017-07-15T05:01:42.887Z,103.1
2017-07-15T05:02:42.089Z,103.3
2017-07-15T05:03:41.408Z,103.1
2017-07-15T05:04:40.980Z,103.1
2017-07-15T05:05:39.664Z,103.4
2017-07-15T05:06:38.988Z,103.3
2017-07-15T05:07:09.245Z,103.3
2017-07-15T05:07:39.880Z,103.4
2017-07-15T05:08:10.390Z,103.4
2017-07-15T05:08:40.517Z,103.5
2017-07-15T05:09:11.021Z,103.5
2017-07-15T05:09:41.510Z,103.6
2017-07-15T05:10:36.175Z,103.6
2017-07-15T05:11:35.237Z,103.2
2017-07-15T05:12:34.295Z,103.1
2017-07-15T05:13:33.491Z,103
2017-07-15T05:14:32.682Z,103.1
2017-07-15T05:15:31.999Z,103.3
2017-07-15T05:16:02.513Z,103.3
2017-07-15T05:16:32.895Z,103.2
2017-07-15T05:17:03.532Z,103.2
2017-07-15T05:17:33.789Z,103.1
2017-07-15T05:18:04.423Z,103.1
2017-07-15T05:18:34.682Z,103.3
2017-07-15T05:19:05.056Z,103.3
2017-07-15T05:19:35.697Z,103.3
2017-07-15T05:20:06.329Z,103.3
2017-07-15T05:20:36.825Z,103.2
2017-07-15T05:21:07.583Z,103.2
2017-07-15T05:22:26.980Z,102.8
2017-07-15T05:23:25.668Z,102.9
2017-07-15T05:24:24.743Z,102.4
2017-07-15T05:25:24.070Z,102.3
2017-07-15T05:26:23.513Z,102.4
2017-07-15T05:27:22.834Z,102.3
2017-07-15T05:28:21.583Z,102.3
2017-07-15T05:28:51.828Z,102.3
2017-07-15T05:29:22.459Z,102.1
2017-07-15T05:29:52.775Z,102.1
2017-07-15T05:30:23.406Z,102.4
2017-07-15T05:30:53.916Z,102.4
2017-07-15T05:32:18.635Z,102.5
2017-07-15T05:33:17.832Z,102.4
2017-07-15T05:34:17.286Z,102.3
2017-07-15T05:35:16.294Z,102
2017-07-15T05:36:15.609Z,102.3
2017-07-15T05:37:15.057Z,102.2
2017-07-15T05:38:14.242Z,101.9
2017-07-15T05:39:13.187Z,102.2
2017-07-15T05:40:12.325Z,101.3
2017-07-15T05:41:11.797Z,101.3
2017-07-15T05:43:10.015Z,101.7
2017-07-15T05:44:09.338Z,101.4
2017-07-15T05:45:08.781Z,101.6
2017-07-15T05:46:08.092Z,101.5
2017-07-15T05:47:07.158Z,101.3
2017-07-15T05:48:06.224Z,101.3
2017-07-15T05:48:36.358Z,101.3
2017-07-15T05:49:07.106Z,100.5
2017-07-15T05:49:37.240Z,100.5
2017-07-15T05:50:07.562Z,100.2
2017-07-15T05:51:04.129Z,100.4
2017-07-15T05:52:03.332Z,100.8
2017-07-15T05:53:02.643Z,100.9
2017-07-15T05:54:01.444Z,100.8
2017-07-15T05:55:01.136Z,100.5
2017-07-15T05:55:59.952Z,100.5
2017-07-15T05:56:59.144Z,100.5
2017-07-15T05:57:58.593Z,100.1
2017-07-15T05:58:28.987Z,100.1
2017-07-15T05:58:59.745Z,99.8
2017-07-15T05:59:30.001Z,99.8
2017-07-15T06:00:00.390Z,99.1
2017-07-15T06:00:30.886Z,99.1
2017-07-15T06:01:01.260Z,99.6
2017-07-15T06:01:31.769Z,99.6
2017-07-15T06:02:02.410Z,99.2
2017-07-15T06:02:54.690Z,99.4
2017-07-15T06:03:54.136Z,99.4
2017-07-15T06:04:53.342Z,99.9
2017-07-15T06:05:52.283Z,99.6
2017-07-15T06:06:51.727Z,100
2017-07-15T06:07:50.926Z,100.3
2017-07-15T06:08:50.229Z,100.3
2017-07-15T06:09:20.623Z,100.3
2017-07-15T06:09:51.004Z,99.9
2017-07-15T06:10:21.633Z,99.9
2017-07-15T06:10:52.019Z,98.8
2017-07-15T06:11:47.826Z,98.4
2017-07-15T06:12:46.776Z,98.6
2017-07-15T06:13:46.096Z,99
2017-07-15T06:14:45.551Z,99.5
2017-07-15T06:15:44.749Z,98.9
2017-07-15T06:16:43.688Z,98.5
2017-07-15T06:17:42.870Z,98.5
2017-07-15T06:18:42.436Z,98.8
2017-07-15T06:19:41.374Z,98.5
2017-07-15T06:20:40.567Z,98.7
2017-07-15T06:21:40.260Z,99.2
2017-07-15T06:22:39.204Z,99.1
2017-07-15T06:23:38.285Z,99
2017-07-15T06:24:37.843Z,99.2
2017-07-15T06:25:08.242Z,99.2
2017-07-15T06:25:38.508Z,99
2017-07-15T06:26:09.011Z,99
2017-07-15T06:26:39.268Z,98.9
2017-07-15T06:27:35.327Z,98.8
2017-07-15T06:28:34.592Z,99.5
2017-07-15T06:30:32.913Z,99.2
2017-07-15T06:31:32.220Z,99.2
2017-07-15T06:32:31.785Z,99.3
2017-07-15T06:33:30.844Z,99.2
2017-07-15T06:34:29.907Z,99.1
2017-07-15T06:35:28.995Z,99.6
2017-07-15T06:36:28.197Z,99.7
2017-07-15T06:37:27.654Z,99.7
2017-07-15T06:38:27.097Z,99.9
2017-07-15T06:39:26.051Z,100.1
2017-07-15T06:40:25.616Z,100.1
2017-07-15T06:41:24.938Z,100.3
2017-07-15T06:42:24.010Z,99.8
2017-07-15T06:43:23.334Z,99.6
2017-07-15T06:44:22.660Z,99.2
2017-07-15T06:45:21.483Z,99.2
2017-07-15T06:46:20.947Z,99.3
2017-07-15T06:47:20.132Z,99.2
2017-07-15T06:48:19.311Z,99.3
2017-07-15T06:49:18.764Z,99.3
2017-07-15T06:50:17.700Z,99.5
2017-07-15T06:51:17.028Z,99.4
2017-07-15T06:52:16.478Z,99.1
2017-07-15T06:53:15.431Z,99.4
2017-07-15T06:54:14.872Z,99.5
2017-07-15T06:54:45.127Z,99.5
2017-07-15T06:55:15.769Z,99
2017-07-15T06:55:46.153Z,99
2017-07-15T06:56:16.919Z,98.9
2017-07-15T06:56:47.998Z,98.9
2017-07-15T06:58:11.356Z,98.8
2017-07-15T06:59:11.046Z,98.7
2017-07-15T07:00:10.370Z,98.9
2017-07-15T07:01:09.186Z,99.2
2017-07-15T07:02:08.627Z,99.2
2017-07-15T07:03:07.822Z,99.3
2017-07-15T07:04:07.136Z,99.3
2017-07-15T07:04:37.624Z,99.3
2017-07-15T07:05:07.871Z,99.6
2017-07-15T07:05:38.376Z,99.6
2017-07-15T07:06:09.008Z,99.4
2017-07-15T07:06:39.275Z,99.4
2017-07-15T07:07:09.708Z,99.4
2017-07-15T07:07:40.222Z,99.4
2017-07-15T07:08:10.486Z,99.4
2017-07-15T07:08:40.872Z,99.4
2017-07-15T07:10:02.717Z,98.5
2017-07-15T07:11:01.786Z,97.9
2017-07-15T07:12:00.978Z,98.1
2017-07-15T07:13:00.049Z,97.8
2017-07-15T07:13:59.250Z,97.6
2017-07-15T07:14:58.703Z,97.7
2017-07-15T07:15:57.909Z,98
2017-07-15T07:16:57.106Z,98.5
2017-07-15T07:17:27.492Z,98.5
2017-07-15T07:17:57.871Z,98.6
2017-07-15T07:18:28.377Z,98.6
2017-07-15T07:19:54.620Z,98.2
2017-07-15T07:20:54.195Z,98.4
2017-07-15T07:21:53.142Z,98.6
2017-07-15T07:22:52.334Z,98.4
2017-07-15T07:23:51.578Z,98.3
2017-07-15T07:24:50.652Z,98.4
2017-07-15T07:25:49.975Z,98.2
2017-07-15T07:26:49.571Z,98.1
2017-07-15T07:27:48.409Z,98.4
2017-07-15T07:29:46.751Z,98.5
2017-07-15T07:30:46.335Z,98.2
2017-07-15T07:31:45.524Z,98.2
2017-07-15T07:32:44.859Z,98.4
2017-07-15T07:33:43.795Z,98.6
2017-07-15T07:34:43.362Z,98
2017-07-15T07:35:42.189Z,97.8
2017-07-15T07:36:12.953Z,97.8
2017-07-15T07:36:43.220Z,97.7
2017-07-15T07:37:13.731Z,97.7
2017-07-15T07:38:39.856Z,98.1
2017-07-15T07:39:39.437Z,98.2
2017-07-15T07:40:38.752Z,98.1
2017-07-15T07:41:37.565Z,97.6
2017-07-15T07:42:36.893Z,97.6
2017-07-15T07:43:36.584Z,97.6
2017-07-15T07:44:35.275Z,98
2017-07-15T07:45:34.854Z,97.5
2017-07-15T07:46:34.057Z,97.9
2017-07-15T07:47:04.815Z,97.9
2017-07-15T07:47:35.076Z,97.3
2017-07-15T07:48:05.584Z,97.3
2017-07-15T07:49:31.953Z,97.5
2017-07-15T07:50:30.850Z,97.9
2017-07-15T07:51:29.914Z,97.8
2017-07-15T07:52:29.367Z,97.9
2017-07-15T07:53:28.681Z,98.1
2017-07-15T07:54:27.882Z,97.3
2017-07-15T07:55:27.328Z,96.8
2017-07-15T07:56:26.661Z,96.9
2017-07-15T07:57:25.737Z,97
2017-07-15T07:58:24.678Z,96.6
2017-07-15T07:58:54.799Z,96.6
2017-07-15T07:59:25.303Z,96.9
2017-07-15T08:00:23.377Z,97.1
2017-07-15T08:01:22.568Z,97
2017-07-15T08:02:21.633Z,96.6
2017-07-15T08:03:20.939Z,96.2
2017-07-15T08:04:20.518Z,96.4
2017-07-15T08:05:19.458Z,95.9
2017-07-15T08:06:18.534Z,95.9
2017-07-15T08:07:17.907Z,95.8
2017-07-15T08:08:17.155Z,95.6
2017-07-15T08:09:16.216Z,95.8
2017-07-15T08:10:15.545Z,95.6
2017-07-15T08:11:15.007Z,95.7
2017-07-15T08:12:14.335Z,95.7
2017-07-15T08:13:13.162Z,95.7
2017-07-15T08:14:12.866Z,95.6
2017-07-15T08:15:11.620Z,94.7
2017-07-15T08:16:11.205Z,94.6
2017-07-15T08:17:10.507Z,94.8
2017-07-15T08:18:09.326Z,94.8
2017-07-15T08:18:39.707Z,94.8
2017-07-15T08:19:10.212Z,94.9
2017-07-15T08:20:08.042Z,95.1
2017-07-15T08:21:07.367Z,95.3
2017-07-15T08:22:06.560Z,95.1
2017-07-15T08:23:05.624Z,95.3
2017-07-15T08:24:05.078Z,95.3
2017-07-15T08:25:04.408Z,95.1
2017-07-15T08:26:03.470Z,95.3
2017-07-15T08:27:02.803Z,95.3
2017-07-15T08:28:02.121Z,95.2
2017-07-15T08:29:00.820Z,95.3
2017-07-15T08:30:00.385Z,95.3
2017-07-15T08:30:59.440Z,94.9
2017-07-15T08:31:59.010Z,94.4
2017-07-15T08:32:58.263Z,94.1
2017-07-15T08:33:57.460Z,93.7
2017-07-15T08:34:56.401Z,93.4
2017-07-15T08:35:55.599Z,93.1
2017-07-15T08:36:54.928Z,92.9
2017-07-15T08:37:54.113Z,92.5
2017-07-15T08:38:53.579Z,92.9
2017-07-15T08:39:52.713Z,92.1
2017-07-15T08:41:51.423Z,91.7
2017-07-15T08:42:50.627Z,90.8
2017-07-15T08:43:21.129Z,90.8
2017-07-15T08:43:51.506Z,90.7
2017-07-15T08:44:22.149Z,90.7
2017-07-15T08:44:52.707Z,91
2017-07-15T08:45:23.156Z,91
2017-07-15T08:46:47.201Z,90
2017-07-15T08:47:46.654Z,89.7
2017-07-15T08:48:45.725Z,89.9
2017-07-15T08:49:45.417Z,90.4
2017-07-15T08:50:44.474Z,90.3
2017-07-15T08:51:43.422Z,90.4
2017-07-15T08:52:42.990Z,90.5
2017-07-15T08:53:13.624Z,90.5
2017-07-15T08:53:44.256Z,90.5
2017-07-15T08:54:14.508Z,90.5
2017-07-15T08:54:45.137Z,91.4
2017-07-15T08:55:15.258Z,91.4
2017-07-15T08:55:46.018Z,91.2
2017-07-15T08:56:16.409Z,91.2
2017-07-15T08:57:39.259Z,91.1
2017-07-15T08:58:38.714Z,91
2017-07-15T08:59:37.665Z,90.6
2017-07-15T09:00:36.873Z,91.1
2017-07-15T09:01:36.329Z,91.6
2017-07-15T09:02:35.520Z,90.8
2017-07-15T09:03:34.587Z,90.4
2017-07-15T09:04:33.782Z,90.7
2017-07-15T09:05:32.966Z,90.1
2017-07-15T09:06:32.246Z,88.8
2017-07-15T09:07:02.880Z,88.8
2017-07-15T09:08:31.275Z,89
2017-07-15T09:09:30.103Z,88.3
2017-07-15T09:10:29.427Z,88
2017-07-15T09:11:28.885Z,88.1
2017-07-15T09:12:27.959Z,88.4
2017-07-15T09:12:58.588Z,88.4
2017-07-15T09:14:26.479Z,89.2
2017-07-15T09:15:25.664Z,89.4
2017-07-15T09:16:24.975Z,89.3
2017-07-15T09:17:24.041Z,89.2
2017-07-15T09:18:23.492Z,89.9
2017-07-15T09:19:22.952Z,90.2
2017-07-15T09:20:21.785Z,90.8
2017-07-15T09:21:21.163Z,90.4
2017-07-15T09:22:20.472Z,90.1
2017-07-15T09:23:19.980Z,90.7
2017-07-15T09:23:50.356Z,90.7
2017-07-15T09:24:20.741Z,91
2017-07-15T09:24:51.375Z,91
2017-07-15T09:25:21.581Z,90.9
2017-07-15T09:25:52.086Z,90.9
2017-07-15T09:26:22.476Z,90.5
2017-07-15T09:26:52.861Z,90.5
2017-07-15T09:28:16.086Z,89.8
2017-07-15T09:29:15.533Z,89.5
2017-07-15T09:30:14.475Z,89.3
2017-07-15T09:31:13.682Z,89.7
2017-07-15T09:32:12.998Z,89.4
2017-07-15T09:33:12.188Z,89.1
2017-07-15T09:34:11.642Z,89.4
2017-07-15T09:34:41.901Z,89.4
2017-07-15T09:35:12.417Z,89
2017-07-15T09:35:42.939Z,89
2017-07-15T09:36:13.066Z,88.5
2017-07-15T09:36:43.824Z,88.5
2017-07-15T09:38:08.434Z,88.2
2017-07-15T09:39:07.877Z,88.4
2017-07-15T09:40:07.327Z,88.1
2017-07-15T09:41:06.538Z,87.5
2017-07-15T09:42:05.734Z,87.5
2017-07-15T09:43:05.065Z,86.8
2017-07-15T09:44:04.386Z,87
2017-07-15T09:45:03.441Z,86.3
2017-07-15T09:46:02.628Z,86.7
2017-07-15T09:47:01.946Z,87.3
2017-07-15T09:48:01.136Z,86.9
2017-07-15T09:49:00.336Z,86.6
2017-07-15T09:49:59.650Z,86.5
2017-07-15T09:50:59.095Z,86
2017-07-15T09:51:58.279Z,86.7
2017-07-15T09:52:57.475Z,87
2017-07-15T09:53:56.786Z,86.2
2017-07-15T09:54:55.863Z,86.3
2017-07-15T09:55:55.319Z,85.5
2017-07-15T09:56:54.395Z,85.7
2017-07-15T09:57:53.585Z,83.9
2017-07-15T09:58:52.890Z,83.4
2017-07-15T09:59:52.336Z,84.3
2017-07-15T10:01:51.051Z,84.6
2017-07-15T10:02:50.241Z,83.8
2017-07-15T10:03:49.190Z,83.7
2017-07-15T10:04:48.635Z,83.2
2017-07-15T10:05:47.702Z,82.8
2017-07-15T10:06:46.895Z,82.7
2017-07-15T10:07:17.650Z,82.7
2017-07-15T10:07:48.277Z,82.8
2017-07-15T10:08:45.456Z,81.9
2017-07-15T10:09:45.024Z,81.8
2017-07-15T10:10:44.484Z,81.7
2017-07-15T10:11:43.548Z,81.8
2017-07-15T10:12:42.875Z,81.5
2017-07-15T10:13:41.896Z,81.8
2017-07-15T10:14:41.371Z,81.6
2017-07-15T10:15:40.820Z,81.2
2017-07-15T10:16:39.765Z,80.2
2017-07-15T10:17:39.090Z,81.1
2017-07-15T10:18:38.414Z,80.9
2017-07-15T10:19:37.484Z,80.9
2017-07-15T10:20:36.674Z,82
2017-07-15T10:21:36.504Z,81.5
2017-07-15T10:22:06.748Z,81.5
2017-07-15T10:23:34.622Z,80.4
2017-07-15T10:24:34.315Z,79.9
2017-07-15T10:25:33.256Z,80.5
2017-07-15T10:26:32.947Z,80.2
2017-07-15T10:27:31.700Z,80.7
2017-07-15T10:28:31.392Z,80.6
2017-07-15T10:29:30.330Z,79.6
2017-07-15T10:30:29.509Z,80.7
2017-07-15T10:31:28.827Z,80.2
2017-07-15T10:31:59.470Z,80.2
2017-07-15T10:32:29.855Z,80.1
2017-07-15T10:33:00.369Z,80.1
2017-07-15T10:34:26.993Z,79.9
2017-07-15T10:35:26.197Z,79.2
2017-07-15T10:36:25.396Z,79.9
2017-07-15T10:37:24.845Z,79.3
2017-07-15T10:38:23.779Z,79.3
2017-07-15T10:39:23.475Z,78.2
2017-07-15T10:40:22.614Z,78.1
2017-07-15T10:41:21.939Z,78
2017-07-15T10:42:21.137Z,78
2017-07-15T10:42:51.390Z,78
2017-07-15T10:43:22.149Z,78
2017-07-15T10:43:52.527Z,78
2017-07-15T10:45:19.053Z,76.7
2017-07-15T10:46:18.514Z,76
2017-07-15T10:47:17.710Z,74.6
2017-07-15T10:48:17.296Z,74.9
2017-07-15T10:49:16.149Z,75.4
2017-07-15T10:50:15.726Z,75.3
2017-07-15T10:51:15.176Z,75.2
2017-07-15T10:52:13.995Z,75.6
2017-07-15T10:53:13.685Z,75.3
2017-07-15T10:54:12.751Z,75.4
2017-07-15T10:55:11.948Z,74.9
2017-07-15T10:56:11.137Z,74.3
2017-07-15T10:57:10.834Z,74.5
2017-07-15T10:58:09.652Z,74.1
2017-07-15T10:59:09.096Z,74.4
2017-07-15T11:00:08.417Z,74.6
2017-07-15T11:01:08.663Z,74.5
2017-07-15T11:02:07.235Z,72.9
2017-07-15T11:02:37.756Z,72.9
2017-07-15T11:03:08.065Z,73.2
2017-07-15T11:03:38.208Z,73.2
2017-07-15T11:04:08.972Z,74.2
2017-07-15T11:04:39.477Z,74.2
2017-07-15T11:05:10.126Z,75
2017-07-15T11:07:03.437Z,73.3
2017-07-15T11:08:03.134Z,72.7
2017-07-15T11:09:02.315Z,71.1
2017-07-15T11:10:01.513Z,71.9
2017-07-15T11:11:00.711Z,72.5
2017-07-15T11:12:00.405Z,72.2
2017-07-15T11:12:30.966Z,72.2
2017-07-15T11:13:01.353Z,73
2017-07-15T11:13:31.864Z,73
2017-07-15T11:14:02.147Z,72.1
2017-07-15T11:14:32.468Z,72.1
2017-07-15T11:15:57.339Z,72.3
2017-07-15T11:16:27.848Z,72.3
2017-07-15T11:16:58.161Z,72
2017-07-15T11:17:55.965Z,72.5
2017-07-15T11:18:55.158Z,73.4
2017-07-15T11:19:54.480Z,73.4
2017-07-15T11:20:54.185Z,73.9
2017-07-15T11:21:53.375Z,74.1
2017-07-15T11:22:52.333Z,72.9
2017-07-15T11:23:51.907Z,73.6
2017-07-15T11:24:22.030Z,73.6
2017-07-15T11:24:52.532Z,73.2
2017-07-15T11:25:23.165Z,73.2
2017-07-15T11:25:53.677Z,73
2017-07-15T11:26:24.212Z,73
2017-07-15T11:27:49.347Z,73.6
2017-07-15T11:28:48.539Z,73
2017-07-15T11:29:47.861Z,73.5
2017-07-15T11:30:47.167Z,73.7
2017-07-15T11:31:46.362Z,73.5
2017-07-15T11:32:45.425Z,74.2
2017-07-15T11:33:44.745Z,74.2
2017-07-15T11:34:44.325Z,74.5
2017-07-15T11:35:43.910Z,74.3
2017-07-15T11:36:42.998Z,74.8
2017-07-15T11:37:42.330Z,73.9
2017-07-15T11:38:41.532Z,74.3
2017-07-15T11:39:40.847Z,74.9
2017-07-15T11:40:40.291Z,74.5
2017-07-15T11:41:39.614Z,73.8
2017-07-15T11:42:39.056Z,74.8
2017-07-15T11:43:38.257Z,75
2017-07-15T11:44:37.078Z,73.5
2017-07-15T11:45:07.399Z,73.5
2017-07-15T11:45:38.028Z,74
2017-07-15T11:46:36.223Z,74.4
2017-07-15T11:47:35.414Z,74.4
2017-07-15T11:48:34.621Z,73.9